createdAt,value
2023-01-22T00:04:17.024Z,76.00
2023-01-22T00:14:26.802Z,76.00
2023-01-22T00:24:36.778Z,76.00
2023-01-22T00:34:46.244Z,68.00
2023-01-22T00:44:55.709Z,76.00
2023-01-22T00:55:05.418Z,76.00
2023-01-22T01:05:15.408Z,74.00
2023-01-22T01:15:25.373Z,78.00
2023-01-22T01:25:35.228Z,74.00
2023-01-22T01:35:45.052Z,44.00
2023-01-22T01:45:54.773Z,84.00
2023-01-22T01:56:04.738Z,80.00
2023-01-22T02:06:14.392Z,78.00
2023-01-22T02:16:24.308Z,80.00
2023-01-22T02:26:34.716Z,80.00
2023-01-22T02:36:44.655Z,82.00
2023-01-22T02:46:54.320Z,80.00
2023-01-22T02:57:04.075Z,78.00
2023-01-22T03:07:14.118Z,82.00
2023-01-22T03:17:23.931Z,84.00
2023-01-22T03:27:33.444Z,78.00
2023-01-22T03:37:43.423Z,78.00
2023-01-22T03:47:53.557Z,78.00
2023-01-22T03:58:08.374Z,80.00
2023-01-22T04:08:17.951Z,82.00
2023-01-22T04:18:27.759Z,80.00
2023-01-22T04:28:37.516Z,78.00
2023-01-22T04:38:47.724Z,80.00
2023-01-22T04:48:57.017Z,80.00
2023-01-22T04:59:06.776Z,68.00
2023-01-22T05:09:17.148Z,70.00
2023-01-22T05:19:26.875Z,70.00
2023-01-22T05:29:36.729Z,70.00
2023-01-22T05:39:46.646Z,72.00
2023-01-22T05:49:56.836Z,76.00
2023-01-22T06:00:06.624Z,76.00
2023-01-22T06:10:16.844Z,76.00
2023-01-22T06:20:26.979Z,76.00
2023-01-22T06:30:37.016Z,76.00
2023-01-22T06:40:46.497Z,68.00
2023-01-22T06:50:56.442Z,76.00
2023-01-22T07:01:06.225Z,76.00
2023-01-22T07:11:16.428Z,74.00
2023-01-22T07:21:26.239Z,78.00
2023-01-22T07:31:36.102Z,76.00
2023-01-22T07:41:45.764Z,76.00
2023-01-22T07:51:55.589Z,74.00
2023-01-22T08:02:05.277Z,72.00
2023-01-22T08:12:15.633Z,70.00
2023-01-22T08:22:25.573Z,76.00
2023-01-22T08:32:35.519Z,72.00
2023-01-22T08:42:45.224Z,76.00
2023-01-22T08:52:55.147Z,70.00
2023-01-22T09:03:04.651Z,78.00
2023-01-22T09:13:14.659Z,80.00
2023-01-22T09:23:24.368Z,78.00
2023-01-22T09:33:34.449Z,78.00
2023-01-22T09:43:42.791Z,76.00
2023-01-22T09:53:52.486Z,76.00
2023-01-22T10:04:02.066Z,54.00
2023-01-22T10:14:10.970Z,54.00
2023-01-22T10:24:20.803Z,30.00
2023-01-22T10:34:30.773Z,42.00
2023-01-22T10:44:40.556Z,42.00
2023-01-22T10:54:50.128Z,44.00
2023-01-22T11:04:59.945Z,68.00
2023-01-22T11:15:09.914Z,62.00
2023-01-22T11:25:20.522Z,68.00
2023-01-22T11:35:30.378Z,64.00
2023-01-22T11:45:39.655Z,66.00
2023-01-22T11:55:49.441Z,58.00
2023-01-22T12:05:59.340Z,70.00
2023-01-22T12:16:09.265Z,64.00
2023-01-22T12:26:19.083Z,66.00
2023-01-22T12:36:27.773Z,68.00
2023-01-22T12:46:37.716Z,58.00
2023-01-22T12:56:47.441Z,62.00
2023-01-22T13:06:59.160Z,64.00
2023-01-22T13:17:10.314Z,54.00
2023-01-22T13:27:20.084Z,66.00
2023-01-22T13:37:29.978Z,50.00
2023-01-22T13:47:39.922Z,54.00
2023-01-22T13:57:49.794Z,58.00
2023-01-22T14:07:59.757Z,52.00
2023-01-22T14:18:10.252Z,56.00
2023-01-22T14:28:20.131Z,60.00
2023-01-22T14:38:29.435Z,56.00
2023-01-22T14:48:39.580Z,60.00
2023-01-22T14:58:49.473Z,62.00
2023-01-22T15:08:59.418Z,62.00
2023-01-22T15:19:09.235Z,62.00
2023-01-22T15:29:18.046Z,62.00
2023-01-22T15:39:27.826Z,74.00
2023-01-22T15:49:37.638Z,60.00
2023-01-22T15:59:47.368Z,44.00
2023-01-22T16:09:57.384Z,46.00
2023-01-22T16:20:06.957Z,50.00
2023-01-22T16:30:16.999Z,54.00
2023-01-22T16:40:26.805Z,58.00
2023-01-22T16:50:35.279Z,60.00
2023-01-22T17:00:45.178Z,66.00
2023-01-22T17:10:54.975Z,82.00
2023-01-22T17:21:06.575Z,84.00
2023-01-22T17:31:15.417Z,76.00
2023-01-22T17:41:25.534Z,82.00
2023-01-22T17:51:34.178Z,78.00
2023-01-22T18:01:43.613Z,82.00
2023-01-22T18:11:52.379Z,76.00
2023-01-22T18:22:01.241Z,76.00
2023-01-22T18:32:11.384Z,78.00
2023-01-22T18:42:20.032Z,78.00
2023-01-22T18:52:30.073Z,80.00
2023-01-22T19:02:39.881Z,80.00
2023-01-22T19:12:49.476Z,78.00
2023-01-22T19:22:59.029Z,80.00
2023-01-22T19:33:08.835Z,74.00
2023-01-22T19:43:18.593Z,78.00
2023-01-22T19:53:28.249Z,78.00
2023-01-22T20:03:38.100Z,78.00
2023-01-22T20:13:47.167Z,80.00
2023-01-22T20:23:56.750Z,74.00
2023-01-22T20:34:05.378Z,68.00
2023-01-22T20:44:13.972Z,80.00
2023-01-22T20:54:23.189Z,70.00
2023-01-22T21:04:32.805Z,68.00
2023-01-22T21:14:42.570Z,64.00
2023-01-22T21:24:51.717Z,68.00
2023-01-22T21:35:01.549Z,66.00
2023-01-22T21:45:12.076Z,70.00
2023-01-22T21:55:20.622Z,64.00
2023-01-22T22:05:30.729Z,70.00
2023-01-22T22:15:40.411Z,74.00
2023-01-22T22:25:49.973Z,70.00
2023-01-22T22:35:59.830Z,70.00
2023-01-22T22:46:09.781Z,70.00
2023-01-22T22:56:19.268Z,72.00
2023-01-22T23:06:29.020Z,54.00
2023-01-22T23:16:38.931Z,74.00
2023-01-22T23:26:48.917Z,70.00
2023-01-22T23:36:58.711Z,72.00
2023-01-22T23:47:08.622Z,72.00
2023-01-22T23:57:18.223Z,76.00
